Time;durP1;ratioP1;P1;durP2;ratioP2;P2;SDS_P1;SDS_P2;PMS_P1;PMS_P2;Temp;Humidity;BMP_temperature;BMP_pressure;BME280_temperature;BME280_humidity;BME280_pressure;Samples;Min_cycle;Max_cycle;Signal;HPM_P1;HPM_P2
2022/02/19 00:00:50;;;;;;;2.30;1.73;;;;;;;5.85;100.00;96197.03;4968046;28;20202;-58
2022/02/19 00:03:18;;;;;;;1.50;1.40;;;;;;;5.85;100.00;96202.28;4949549;28;20415;-53
2022/02/19 00:05:46;;;;;;;1.60;0.77;;;;;;;5.90;100.00;96213.91;4967032;28;20726;-52
2022/02/19 00:08:14;;;;;;;2.43;1.47;;;;;;;5.82;100.00;96218.41;4954914;28;20208;-56
2022/02/19 00:10:43;;;;;;;5.47;1.80;;;;;;;5.85;100.00;96226.78;4966660;28;20295;-54
2022/02/19 00:13:13;;;;;;;4.73;1.40;;;;;;;5.79;100.00;96219.59;4920035;28;20245;-57
2022/02/19 00:15:42;;;;;;;5.13;1.17;;;;;;;5.82;100.00;96242.91;4969229;28;20280;-50
2022/02/19 00:18:11;;;;;;;2.27;2.07;;;;;;;5.66;100.00;96214.94;4954158;28;20256;-54
2022/02/19 00:20:39;;;;;;;5.57;1.60;;;;;;;5.58;100.00;96228.16;4966416;28;20210;-54
2022/02/19 00:23:07;;;;;;;3.00;1.37;;;;;;;5.56;100.00;96230.13;4963375;28;20222;-56
2022/02/19 00:25:35;;;;;;;2.27;1.60;;;;;;;5.42;100.00;96231.72;4962346;28;20228;-52
2022/02/19 00:28:04;;;;;;;3.10;1.60;;;;;;;5.38;100.00;96254.88;4925750;28;20215;-54
2022/02/19 00:30:34;;;;;;;6.00;1.53;;;;;;;5.41;100.00;96262.41;4962828;28;20206;-56
2022/02/19 00:33:02;;;;;;;2.30;1.53;;;;;;;5.53;100.00;96277.78;4964954;28;20312;-53
2022/02/19 00:35:30;;;;;;;1.70;1.20;;;;;;;5.44;100.00;96298.84;4953544;28;20222;-57
2022/02/19 00:37:58;;;;;;;2.40;1.40;;;;;;;5.45;100.00;96281.28;4965910;28;21048;-48
2022/02/19 00:40:26;;;;;;;3.20;1.63;;;;;;;5.45;100.00;96289.16;4953838;28;20301;-55
2022/02/19 00:42:54;;;;;;;1.10;1.00;;;;;;;5.20;100.00;96286.66;4927596;28;21547;-50
2022/02/19 00:45:22;;;;;;;3.67;1.60;;;;;;;5.17;100.00;96285.22;4967044;28;20210;-54
2022/02/19 00:47:52;;;;;;;3.33;2.00;;;;;;;5.33;100.00;96289.56;4960449;28;20428;-50
2022/02/19 00:50:21;;;;;;;1.47;1.37;;;;;;;5.33;100.00;96292.19;4951171;28;20214;-52
2022/02/19 00:52:49;;;;;;;1.60;1.50;;;;;;;5.23;100.00;96304.69;4948180;28;20548;-55
2022/02/19 00:55:18;;;;;;;2.83;1.60;;;;;;;5.26;100.00;96296.47;4955183;28;20646;-53
2022/02/19 00:57:46;;;;;;;1.67;1.43;;;;;;;5.24;100.00;96310.78;4950860;28;20221;-57
2022/02/19 01:00:15;;;;;;;1.33;1.17;;;;;;;5.25;100.00;96307.16;4930436;28;20300;-51
2022/02/19 01:02:43;;;;;;;1.63;1.53;;;;;;;5.14;100.00;96309.19;4954458;28;20313;-56
2022/02/19 01:05:13;;;;;;;2.00;1.67;;;;;;;5.04;100.00;96304.13;4955071;28;20328;-56
2022/02/19 01:07:41;;;;;;;2.20;1.60;;;;;;;5.15;100.00;96308.19;4965198;28;20205;-55
2022/02/19 01:10:10;;;;;;;2.00;1.43;;;;;;;5.22;100.00;96314.41;4941673;28;20295;-53
2022/02/19 01:12:38;;;;;;;3.33;1.40;;;;;;;5.21;100.00;96314.56;4966417;28;20599;-54
2022/02/19 01:15:07;;;;;;;4.40;2.03;;;;;;;5.15;100.00;96315.25;4925915;28;25116;-51
2022/02/19 01:17:35;;;;;;;2.87;1.40;;;;;;;5.09;100.00;96319.34;4964225;28;20257;-57
2022/02/19 01:20:03;;;;;;;1.80;1.43;;;;;;;5.14;100.00;96329.38;4950288;28;20818;-55
2022/02/19 01:22:34;;;;;;;2.47;1.30;;;;;;;5.13;100.00;96336.44;4962540;28;20242;-57
2022/02/19 01:25:02;;;;;;;3.07;1.80;;;;;;;5.01;100.00;96343.03;4944664;28;20313;-51
2022/02/19 01:27:30;;;;;;;5.10;2.10;;;;;;;5.02;100.00;96340.25;4951633;28;20214;-54
2022/02/19 01:29:59;;;;;;;2.63;1.67;;;;;;;5.05;100.00;96349.56;4964880;28;20225;-52
2022/02/19 01:32:27;;;;;;;4.00;1.50;;;;;;;4.97;100.00;96371.44;4913325;28;20331;-58
2022/02/19 01:34:55;;;;;;;3.03;2.07;;;;;;;5.09;100.00;96348.25;4964379;28;20549;-49
2022/02/19 01:37:23;;;;;;;3.90;1.10;;;;;;;5.11;100.00;96362.03;4952041;28;20214;-53
2022/02/19 01:40:38;;;;;;;3.73;1.57;;;;;;;5.03;100.00;96378.63;4945012;28;20232;-59
2022/02/19 01:43:10;;;;;;;1.93;1.47;;;;;;;5.01;100.00;96375.38;4962140;28;20221;-54
2022/02/19 01:45:39;;;;;;;2.10;1.43;;;;;;;4.97;100.00;96352.22;4933753;28;20305;-54
2022/02/19 01:48:07;;;;;;;2.07;1.43;;;;;;;5.03;100.00;96377.81;4954251;28;20209;-58
2022/02/19 01:50:35;;;;;;;2.50;1.50;;;;;;;4.95;100.00;96372.59;4960235;28;20350;-54
2022/02/19 01:53:03;;;;;;;5.67;2.10;;;;;;;4.87;100.00;96381.28;4947201;28;21344;-56
2022/02/19 01:55:31;;;;;;;5.57;1.60;;;;;;;4.90;100.00;96381.78;4967130;28;20211;-55
2022/02/19 01:58:01;;;;;;;5.70;1.73;;;;;;;4.93;100.00;96378.81;4947658;28;20205;-52
2022/02/19 02:00:31;;;;;;;1.17;1.07;;;;;;;4.97;100.00;96373.22;4966580;28;20691;-53
2022/02/19 02:03:00;;;;;;;3.23;1.30;;;;;;;4.87;100.00;96369.00;4920735;28;20231;-56
2022/02/19 02:05:28;;;;;;;3.87;2.03;;;;;;;4.84;100.00;96374.59;4963126;28;20202;-53
2022/02/19 02:07:57;;;;;;;3.47;1.90;;;;;;;4.72;100.00;96361.00;4931290;28;20705;-56
2022/02/19 02:10:25;;;;;;;4.13;1.60;;;;;;;4.79;100.00;96376.91;4960740;28;20324;-49
2022/02/19 02:12:53;;;;;;;1.80;1.47;;;;;;;4.77;100.00;96371.81;4949439;28;20275;-55
2022/02/19 02:15:26;;;;;;;5.07;1.53;;;;;;;4.66;100.00;96376.56;4963910;28;20233;-57
2022/02/19 02:17:57;;;;;;;4.20;2.03;;;;;;;4.59;100.00;96381.69;4923035;28;20633;-51
2022/02/19 02:20:25;;;;;;;3.20;2.10;;;;;;;4.67;100.00;96378.22;4963279;28;20214;-49
2022/02/19 02:22:54;;;;;;;1.53;1.17;;;;;;;4.59;100.00;96376.44;4942872;28;20600;-56
2022/02/19 02:25:26;;;;;;;3.03;2.37;;;;;;;4.37;100.00;96377.94;4953688;28;20210;-53
2022/02/19 02:27:54;;;;;;;5.03;1.83;;;;;;;4.46;100.00;96374.31;4945561;28;20284;-51
2022/02/19 02:30:23;;;;;;;3.23;1.60;;;;;;;4.42;100.00;96380.88;4943500;28;20905;-49
2022/02/19 02:32:51;;;;;;;3.67;1.67;;;;;;;4.43;100.00;96372.03;4921170;28;20716;-59
2022/02/19 02:35:19;;;;;;;4.33;2.20;;;;;;;4.41;100.00;96385.28;4962270;28;20257;-59
2022/02/19 02:37:48;;;;;;;2.13;1.97;;;;;;;4.49;100.00;96387.91;4951370;28;20756;-51
2022/02/19 02:40:17;;;;;;;7.40;2.00;;;;;;;4.54;100.00;96381.34;4963264;28;20248;-58
2022/02/19 02:42:45;;;;;;;3.47;1.93;;;;;;;4.37;100.00;96388.44;4948845;28;20319;-49
2022/02/19 02:45:14;;;;;;;1.97;1.53;;;;;;;4.40;100.00;96395.97;4942105;28;20901;-53
2022/02/19 02:48:02;;;;;;;4.13;2.17;;;;;;;4.34;100.00;96390.38;4919070;28;20214;-57
2022/02/19 02:50:30;;;;;;;1.60;1.40;;;;;;;4.24;100.00;96384.47;4966499;28;20276;-55
2022/02/19 02:53:18;;;;;;;4.77;1.60;;;;;;;4.40;100.00;96393.34;4939892;28;20832;-53
2022/02/19 02:55:48;;;;;;;3.43;2.20;;;;;;;4.25;100.00;96388.72;4967315;28;20207;-52
2022/02/19 02:58:16;;;;;;;2.97;1.53;;;;;;;4.27;100.00;96392.00;4946984;28;20292;-54
2022/02/19 03:00:44;;;;;;;2.07;1.87;;;;;;;4.25;100.00;96382.69;4966924;28;20298;-56
2022/02/19 03:03:12;;;;;;;4.50;1.70;;;;;;;4.22;100.00;96377.78;4896424;28;20915;-52
2022/02/19 03:05:41;;;;;;;3.03;1.40;;;;;;;4.26;100.00;96390.38;4962330;28;20599;-55
2022/02/19 03:08:09;;;;;;;2.80;1.47;;;;;;;4.27;100.00;96384.13;4941778;28;20467;-51
2022/02/19 03:10:38;;;;;;;1.80;1.33;;;;;;;4.28;100.00;96400.72;4958851;28;20753;-50
2022/02/19 03:13:08;;;;;;;3.83;1.93;;;;;;;4.26;100.00;96402.69;4950140;28;20249;-53
2022/02/19 03:15:36;;;;;;;5.13;1.73;;;;;;;4.40;100.00;96414.31;4954831;28;20257;-55
2022/02/19 03:18:06;;;;;;;1.83;1.70;;;;;;;4.38;100.00;96419.72;4925553;28;20214;-57
2022/02/19 03:20:39;;;;;;;2.17;1.70;;;;;;;4.34;100.00;96424.47;4959059;28;20210;-50
2022/02/19 03:23:07;;;;;;;3.20;2.40;;;;;;;4.31;100.00;96416.13;4944503;28;20272;-53
2022/02/19 03:25:35;;;;;;;3.97;1.23;;;;;;;4.43;100.00;96422.66;4963150;28;20264;-55
2022/02/19 03:28:04;;;;;;;2.57;1.53;;;;;;;4.36;100.00;96437.44;4963551;28;20296;-58
2022/02/19 03:30:33;;;;;;;3.63;1.30;;;;;;;4.39;100.00;96441.53;4947262;28;20234;-53
2022/02/19 03:33:02;;;;;;;1.60;1.50;;;;;;;4.38;100.00;96435.47;4933425;28;20261;-57
2022/02/19 03:35:30;;;;;;;3.43;1.73;;;;;;;4.53;100.00;96448.75;4959063;28;20349;-56
2022/02/19 03:37:59;;;;;;;3.37;1.43;;;;;;;4.45;100.00;96454.00;4955307;28;20656;-55
2022/02/19 03:40:27;;;;;;;3.43;1.60;;;;;;;4.67;100.00;96462.19;4959824;28;20216;-51
2022/02/19 03:42:55;;;;;;;3.13;1.50;;;;;;;4.62;100.00;96465.31;4969557;28;20820;-56
2022/02/19 03:45:23;;;;;;;4.17;1.63;;;;;;;4.62;100.00;96466.13;4951005;28;20808;-56
2022/02/19 03:47:53;;;;;;;2.47;1.83;;;;;;;4.67;100.00;96465.63;4960774;28;20642;-56
2022/02/19 03:50:22;;;;;;;1.53;1.43;;;;;;;4.60;100.00;96465.47;4939230;28;20312;-52
2022/02/19 03:52:50;;;;;;;2.97;2.40;;;;;;;4.58;100.00;96477.94;4961456;28;20722;-52
2022/02/19 03:55:18;;;;;;;2.77;1.63;;;;;;;4.71;100.00;96480.06;4948984;28;20625;-55
2022/02/19 03:57:46;;;;;;;2.73;1.33;;;;;;;4.63;100.00;96474.81;4964875;28;20693;-55
2022/02/19 04:00:16;;;;;;;3.60;1.60;;;;;;;4.55;100.00;96482.69;4947263;28;20551;-53
2022/02/19 04:02:44;;;;;;;3.23;1.57;;;;;;;4.67;100.00;96480.56;4966818;28;20296;-55
2022/02/19 04:05:14;;;;;;;3.53;1.40;;;;;;;4.60;100.00;96496.16;4920819;28;20947;-55
2022/02/19 04:07:44;;;;;;;3.63;1.23;;;;;;;4.53;100.00;96501.22;4942514;28;20836;-58
2022/02/19 04:10:12;;;;;;;6.60;1.70;;;;;;;4.48;100.00;96508.75;4946563;28;20202;-55
2022/02/19 04:12:41;;;;;;;6.33;1.87;;;;;;;4.48;100.00;96509.56;4966854;28;20296;-53
2022/02/19 04:15:10;;;;;;;3.77;1.60;;;;;;;4.53;100.00;96516.13;4942275;28;20433;-50
2022/02/19 04:17:39;;;;;;;2.20;1.43;;;;;;;4.56;100.00;96518.44;4963298;28;20564;-53
2022/02/19 04:20:09;;;;;;;3.07;2.03;;;;;;;4.61;100.00;96518.78;4920460;28;20238;-57
2022/02/19 04:22:41;;;;;;;2.63;2.00;;;;;;;4.60;100.00;96528.44;4934314;28;20202;-54
2022/02/19 04:25:10;;;;;;;2.10;1.37;;;;;;;4.65;100.00;96543.72;4966750;28;20577;-50
2022/02/19 04:27:38;;;;;;;3.17;1.53;;;;;;;4.62;100.00;96536.97;4945164;28;20303;-55
2022/02/19 04:30:08;;;;;;;2.77;1.33;;;;;;;4.61;100.00;96553.69;4966635;28;20268;-51
2022/02/19 04:32:36;;;;;;;1.70;1.60;;;;;;;4.55;100.00;96549.09;4941083;28;20765;-52
2022/02/19 04:35:05;;;;;;;4.23;2.33;;;;;;;4.45;100.00;96553.69;4967893;28;20278;-50
2022/02/19 04:37:34;;;;;;;4.90;1.70;;;;;;;4.44;100.00;96531.06;4918307;28;20380;-58
2022/02/19 04:40:04;;;;;;;2.90;1.77;;;;;;;4.69;100.00;96558.16;4969400;28;20260;-50
2022/02/19 04:42:32;;;;;;;3.43;1.83;;;;;;;4.59;95.91;96547.00;4939887;28;20688;-56
2022/02/19 04:45:01;;;;;;;2.83;1.40;;;;;;;4.53;94.20;96566.81;4969714;28;20241;-53
2022/02/19 04:47:29;;;;;;;2.70;1.53;;;;;;;4.46;95.53;96561.38;4943360;28;20589;-52
2022/02/19 04:49:57;;;;;;;1.47;1.40;;;;;;;4.44;98.23;96558.09;4960594;28;20202;-54
2022/02/19 04:52:26;;;;;;;4.10;2.37;;;;;;;4.34;100.00;96567.91;4917208;28;20249;-53
2022/02/19 04:54:54;;;;;;;2.97;1.33;;;;;;;4.29;100.00;96575.44;4961381;28;20230;-47
2022/02/19 04:57:24;;;;;;;1.83;1.47;;;;;;;4.12;100.00;96575.38;4936781;28;20237;-54
2022/02/19 04:59:52;;;;;;;5.35;2.00;;;;;;;4.13;100.00;96581.44;4943396;28;20769;-53
2022/02/19 05:02:20;;;;;;;4.50;1.90;;;;;;;4.12;92.86;96582.44;4925661;28;20664;-48
2022/02/19 05:04:48;;;;;;;3.13;1.53;;;;;;;4.02;92.88;96585.16;4928617;28;20265;-53
2022/02/19 05:07:17;;;;;;;2.50;1.90;;;;;;;3.91;96.66;96597.56;4925999;28;20209;-51
2022/02/19 05:09:45;;;;;;;4.43;1.93;;;;;;;3.82;96.32;96609.00;4962701;28;20288;-53
2022/02/19 05:12:14;;;;;;;4.90;1.73;;;;;;;3.76;96.77;96601.72;4939173;28;20229;-52
2022/02/19 05:14:43;;;;;;;2.70;1.60;;;;;;;3.63;97.65;96607.41;4942834;28;20256;-50
2022/02/19 05:17:12;;;;;;;3.97;2.33;;;;;;;3.68;98.68;96620.03;4947423;28;20217;-48
2022/02/19 05:19:40;;;;;;;4.07;1.67;;;;;;;3.60;94.80;96603.28;4917318;28;20216;-48
2022/02/19 05:22:08;;;;;;;6.17;1.63;;;;;;;3.56;99.92;96612.44;4913984;28;20568;-54
2022/02/19 05:24:37;;;;;;;2.37;1.53;;;;;;;3.53;100.00;96627.63;4967753;28;20230;-50
2022/02/19 05:27:05;;;;;;;1.47;1.33;;;;;;;3.48;100.00;96623.66;4961955;28;20486;-50
2022/02/19 05:29:33;;;;;;;3.23;1.70;;;;;;;3.52;100.00;96631.22;4947396;28;20417;-52
2022/02/19 05:32:03;;;;;;;2.83;2.13;;;;;;;3.50;100.00;96627.94;4964090;28;20693;-52
2022/02/19 05:34:31;;;;;;;5.10;2.40;;;;;;;3.55;100.00;96633.53;4924393;28;20282;-50
2022/02/19 05:36:59;;;;;;;6.03;1.80;;;;;;;3.48;100.00;96630.72;4962750;28;20257;-52
2022/02/19 05:39:27;;;;;;;2.13;1.40;;;;;;;3.42;100.00;96632.16;4895586;28;20557;-52
2022/02/19 05:41:55;;;;;;;4.97;1.88;;;;;;;3.35;100.00;96646.00;4962126;28;20542;-51
2022/02/19 05:44:24;;;;;;;3.57;2.00;;;;;;;3.37;100.00;96647.50;4941708;28;20636;-52
2022/02/19 05:46:53;;;;;;;3.38;1.88;;;;;;;3.43;100.00;96646.06;4963608;28;20458;-51
2022/02/19 05:49:22;;;;;;;4.53;2.27;;;;;;;3.45;100.00;96658.03;4931840;28;20447;-55
2022/02/19 05:51:50;;;;;;;3.72;2.60;;;;;;;3.45;100.00;96650.19;4937478;28;20962;-48
2022/02/19 05:54:18;;;;;;;2.40;1.67;;;;;;;3.53;100.00;96654.66;4917462;28;20492;-53
2022/02/19 05:56:47;;;;;;;4.97;1.63;;;;;;;3.45;100.00;96652.78;4966492;28;20261;-48
2022/02/19 05:59:15;;;;;;;3.13;1.77;;;;;;;3.46;100.00;96670.16;4945798;28;20526;-50
2022/02/19 06:01:43;;;;;;;2.50;1.63;;;;;;;3.45;100.00;96678.97;4962485;28;20688;-53
2022/02/19 06:04:11;;;;;;;3.70;2.53;;;;;;;3.41;100.00;96684.66;4948392;28;20715;-49
2022/02/19 06:06:41;;;;;;;1.57;1.47;;;;;;;3.38;100.00;96685.81;4951229;28;20238;-51
2022/02/19 06:09:09;;;;;;;6.03;1.97;;;;;;;3.26;100.00;96695.69;4926105;28;20268;-53
2022/02/19 06:11:40;;;;;;;2.27;1.93;;;;;;;3.37;100.00;96726.06;4963635;28;20217;-50
2022/02/19 06:14:08;;;;;;;4.83;2.43;;;;;;;3.34;100.00;96705.41;4950767;28;20760;-51
2022/02/19 06:16:36;;;;;;;2.00;1.60;;;;;;;3.41;100.00;96721.31;4959458;28;20226;-52
2022/02/19 06:19:05;;;;;;;3.00;1.73;;;;;;;3.42;100.00;96723.81;4931502;28;20462;-53
2022/02/19 06:21:33;;;;;;;4.93;1.80;;;;;;;3.43;100.00;96749.03;4949405;28;20215;-53
2022/02/19 06:24:02;;;;;;;4.93;2.00;;;;;;;3.43;100.00;96750.84;4947012;28;20411;-51
2022/02/19 06:26:31;;;;;;;2.70;2.03;;;;;;;3.50;100.00;96761.53;4922903;28;20241;-52
2022/02/19 06:28:59;;;;;;;4.73;1.90;;;;;;;3.51;100.00;96755.31;4950106;28;20502;-52
2022/02/19 06:31:27;;;;;;;4.30;1.40;;;;;;;3.50;100.00;96764.97;4947694;28;20248;-51
2022/02/19 06:33:55;;;;;;;4.50;1.80;;;;;;;3.42;100.00;96767.53;4960903;28;20435;-52
2022/02/19 06:36:23;;;;;;;3.70;1.47;;;;;;;3.39;100.00;96760.78;4951380;28;20264;-49
2022/02/19 06:38:52;;;;;;;3.50;1.87;;;;;;;3.47;100.00;96773.94;4927720;28;20308;-50
2022/02/19 06:41:21;;;;;;;1.63;1.50;;;;;;;3.52;100.00;96780.53;4923590;28;20764;-51
2022/02/19 06:43:49;;;;;;;11.27;2.13;;;;;;;3.44;100.00;96776.88;4947399;28;20265;-52
2022/02/19 06:46:18;;;;;;;6.03;1.27;;;;;;;3.42;100.00;96783.25;4936505;28;20356;-51
2022/02/19 06:48:46;;;;;;;2.40;2.20;;;;;;;3.25;100.00;96779.63;4959046;28;20230;-51
2022/02/19 06:51:14;;;;;;;5.03;1.60;;;;;;;3.30;100.00;96811.44;4947786;28;20872;-54
2022/02/19 06:53:42;;;;;;;5.77;2.50;;;;;;;3.45;100.00;96809.94;4929442;28;20229;-51
2022/02/19 06:56:10;;;;;;;3.77;2.03;;;;;;;3.39;100.00;96813.16;4963158;28;20232;-50
2022/02/19 06:58:40;;;;;;;3.50;2.17;;;;;;;3.35;100.00;96824.06;4923851;28;20834;-56
2022/02/19 07:01:08;;;;;;;5.90;2.13;;;;;;;3.34;100.00;96818.03;4940237;28;20431;-45
2022/02/19 07:03:36;;;;;;;4.20;2.03;;;;;;;3.28;100.00;96822.03;4963867;28;20641;-52
2022/02/19 07:06:04;;;;;;;3.50;2.10;;;;;;;3.28;100.00;96832.50;4935796;28;21260;-49
2022/02/19 07:08:33;;;;;;;3.07;2.80;;;;;;;3.31;100.00;96836.66;4950318;28;20214;-55
2022/02/19 07:11:01;;;;;;;6.70;2.17;;;;;;;3.38;100.00;96848.19;4949274;28;20201;-49
2022/02/19 07:13:29;;;;;;;4.40;1.57;;;;;;;3.52;100.00;96851.25;4932478;28;20807;-52
2022/02/19 07:16:02;;;;;;;4.97;1.93;;;;;;;3.76;100.00;96851.53;4955551;28;20869;-51
2022/02/19 07:18:30;;;;;;;5.57;1.77;;;;;;;3.83;100.00;96864.03;4952804;28;20237;-51
2022/02/19 07:20:58;;;;;;;2.80;1.37;;;;;;;3.93;100.00;96872.63;4950706;28;20491;-49
2022/02/19 07:23:26;;;;;;;3.23;2.27;;;;;;;3.98;100.00;96877.44;4943355;28;20363;-50
2022/02/19 07:25:54;;;;;;;5.63;1.97;;;;;;;4.08;100.00;96883.41;4951311;28;20229;-55
2022/02/19 07:28:23;;;;;;;2.10;1.90;;;;;;;4.06;100.00;96893.22;4968924;28;20296;-50
2022/02/19 07:30:51;;;;;;;3.27;1.57;;;;;;;4.01;100.00;96898.09;4929806;28;20328;-52
2022/02/19 07:33:20;;;;;;;1.83;1.30;;;;;;;3.84;100.00;96889.25;4945409;28;20332;-50
2022/02/19 07:35:49;;;;;;;3.87;1.57;;;;;;;3.90;100.00;96915.72;4964550;28;20209;-53
2022/02/19 07:38:17;;;;;;;5.60;1.60;;;;;;;4.06;100.00;96908.97;4941777;28;20376;-50
2022/02/19 07:40:45;;;;;;;7.37;2.30;;;;;;;3.99;100.00;96921.03;4949635;28;20214;-53
2022/02/19 07:43:13;;;;;;;7.30;2.33;;;;;;;3.86;100.00;96924.00;4964415;28;20977;-51
2022/02/19 07:45:41;;;;;;;3.23;1.63;;;;;;;3.95;100.00;96925.72;4926956;28;20316;-51
2022/02/19 07:48:12;;;;;;;6.47;2.17;;;;;;;4.00;100.00;96935.78;4933952;28;20261;-52
2022/02/19 07:58:59;;;;;;;3.07;1.30;;;;;;;3.79;99.01;96954.41;4967037;28;20226;-50
2022/02/19 08:01:27;;;;;;;3.90;1.50;;;;;;;3.89;100.00;96965.66;4926428;28;20954;-50
2022/02/19 08:03:55;;;;;;;4.40;1.23;;;;;;;3.88;97.88;96950.88;4955861;28;20296;-50
2022/02/19 08:06:25;;;;;;;1.80;1.60;;;;;;;3.96;100.00;96950.97;4948696;28;20300;-49
2022/02/19 08:08:53;;;;;;;3.10;1.73;;;;;;;3.95;99.37;96969.47;4950939;28;20345;-54
2022/02/19 08:11:21;;;;;;;2.67;1.60;;;;;;;3.69;98.76;96957.91;4949021;28;20241;-52
2022/02/19 08:13:49;;;;;;;2.83;1.50;;;;;;;3.74;100.00;96978.41;4964404;28;20320;-50
2022/02/19 08:16:18;;;;;;;6.20;1.70;;;;;;;3.70;100.00;96972.66;4945190;28;20202;-53
2022/02/19 08:18:47;;;;;;;6.50;2.20;;;;;;;3.99;99.05;96979.53;4949020;28;20214;-47
2022/02/19 08:21:17;;;;;;;3.97;1.80;;;;;;;4.12;97.73;96986.22;4952676;28;20226;-52
2022/02/19 08:23:47;;;;;;;1.87;1.57;;;;;;;4.10;96.57;96980.28;4965727;28;20234;-51
2022/02/19 08:26:18;;;;;;;3.00;1.67;;;;;;;4.16;100.00;96977.88;4934271;28;20264;-50
2022/02/19 08:28:46;;;;;;;2.27;1.80;;;;;;;4.03;96.71;96987.91;4969620;28;20209;-50
2022/02/19 08:31:15;;;;;;;2.80;1.80;;;;;;;4.10;98.87;96990.78;4949963;28;20720;-53
2022/02/19 08:33:43;;;;;;;1.53;1.27;;;;;;;4.27;92.22;96989.16;4952618;28;20230;-47
2022/02/19 08:36:11;;;;;;;2.73;1.90;;;;;;;4.25;92.01;96991.09;4951395;28;20210;-52
2022/02/19 08:38:40;;;;;;;2.37;1.60;;;;;;;4.25;98.32;97009.47;4955828;28;20206;-51
2022/02/19 08:41:09;;;;;;;2.07;1.87;;;;;;;4.07;100.00;97010.25;4938762;28;20256;-52
2022/02/19 08:43:37;;;;;;;3.70;1.63;;;;;;;4.19;99.36;97018.75;4963634;28;20226;-50
2022/02/19 08:46:06;;;;;;;2.87;1.40;;;;;;;4.27;95.03;97028.50;4966582;28;20210;-50
2022/02/19 08:48:34;;;;;;;3.03;1.83;;;;;;;4.15;90.30;97026.06;4927167;28;20325;-48
2022/02/19 08:51:02;;;;;;;1.27;1.17;;;;;;;3.86;93.46;97024.44;4953503;28;20241;-50
2022/02/19 08:53:30;;;;;;;4.30;2.07;;;;;;;4.12;91.94;97038.66;4947850;28;20225;-51
2022/02/19 08:55:58;;;;;;;3.53;2.00;;;;;;;4.13;100.00;97016.72;4951522;28;20233;-50
2022/02/19 08:58:28;;;;;;;3.00;1.83;;;;;;;4.30;100.00;97052.63;4950537;28;20304;-46
2022/02/19 09:00:56;;;;;;;4.50;1.50;;;;;;;4.10;98.20;97033.53;4971239;28;20260;-51
2022/02/19 09:03:25;;;;;;;1.67;1.57;;;;;;;4.03;100.00;97035.13;4928141;28;20260;-55
2022/02/19 09:05:53;;;;;;;7.60;2.40;;;;;;;4.37;98.73;97037.13;4963200;28;20201;-48
2022/02/19 09:08:21;;;;;;;4.53;1.50;;;;;;;4.38;91.44;97027.47;4935154;28;20237;-54
2022/02/19 09:10:49;;;;;;;3.37;2.17;;;;;;;4.41;89.18;97035.84;4944614;28;20216;-49
2022/02/19 09:13:17;;;;;;;3.17;1.70;;;;;;;4.75;99.67;97043.06;4950038;28;20349;-55
2022/02/19 09:15:48;;;;;;;2.83;1.93;;;;;;;5.06;94.16;97037.41;4968593;28;20297;-50
2022/02/19 09:18:16;;;;;;;2.83;2.20;;;;;;;5.11;93.08;97036.13;4947765;28;20321;-53
2022/02/19 09:20:44;;;;;;;4.07;1.70;;;;;;;5.27;84.78;97056.44;4929364;28;20358;-50
2022/02/19 09:23:12;;;;;;;2.63;1.47;;;;;;;5.05;81.59;97051.53;4941595;28;20823;-54
2022/02/19 09:25:41;;;;;;;5.37;2.47;;;;;;;5.15;78.93;97046.19;4958314;28;20920;-51
2022/02/19 09:28:09;;;;;;;1.80;1.70;;;;;;;5.68;72.65;97059.31;4935837;28;20209;-55
2022/02/19 09:30:37;;;;;;;3.40;2.00;;;;;;;6.36;64.08;97056.81;4963234;28;20297;-55
2022/02/19 09:33:07;;;;;;;1.80;1.70;;;;;;;6.33;57.52;97065.88;4945160;28;20282;-53
2022/02/19 09:35:35;;;;;;;4.00;1.40;;;;;;;6.10;61.23;97057.75;4921149;28;20218;-54
2022/02/19 09:38:03;;;;;;;2.60;2.40;;;;;;;5.68;66.02;97061.94;4950284;28;20316;-53
2022/02/19 09:40:31;;;;;;;3.00;1.83;;;;;;;5.77;68.82;97050.47;4949574;28;20256;-51
2022/02/19 09:42:59;;;;;;;5.50;1.47;;;;;;;5.84;73.30;97066.47;4933766;28;20343;-56
2022/02/19 09:45:29;;;;;;;2.03;1.33;;;;;;;5.58;74.82;97071.75;4966768;28;20769;-54
2022/02/19 09:47:58;;;;;;;1.57;1.43;;;;;;;6.06;71.39;97064.28;4950487;28;20194;-52
2022/02/19 09:50:29;;;;;;;5.20;1.93;;;;;;;6.10;65.38;97073.53;4958146;28;20214;-54
2022/02/19 09:52:57;;;;;;;4.17;1.83;;;;;;;5.89;73.96;97072.06;4939230;28;20232;-53
2022/02/19 09:55:25;;;;;;;6.32;2.20;;;;;;;5.61;69.97;97077.50;4951066;28;20453;-53
2022/02/19 09:57:53;;;;;;;3.50;1.87;;;;;;;5.64;64.82;97087.72;4948492;28;20356;-53
2022/02/19 10:00:40;;;;;;;4.73;1.87;;;;;;;5.63;71.38;97086.06;4964193;28;20678;-52
2022/02/19 10:03:12;;;;;;;3.43;1.73;;;;;;;5.38;66.55;97094.78;4954324;28;20240;-49
2022/02/19 10:05:43;;;;;;;2.73;1.80;;;;;;;4.97;73.54;97101.34;4959619;28;20214;-51
2022/02/19 10:08:11;;;;;;;6.03;1.63;;;;;;;4.97;76.12;97103.97;4929717;28;20287;-46
2022/02/19 10:10:42;;;;;;;2.57;1.87;;;;;;;5.06;72.55;97099.59;4950513;28;20233;-55
2022/02/19 10:13:11;;;;;;;3.57;1.87;;;;;;;5.07;70.33;97094.22;4948069;28;22331;-54
2022/02/19 10:15:45;;;;;;;1.60;1.50;;;;;;;5.17;66.68;97098.53;4930734;28;20240;-54
2022/02/19 10:18:26;;;;;;;2.00;1.70;;;;;;;5.10;63.06;97082.56;4949722;28;20233;-51
2022/02/19 10:21:11;;;;;;;2.63;2.00;;;;;;;5.24;73.06;97101.41;4952950;28;20216;-53
2022/02/19 10:23:43;;;;;;;1.93;1.50;;;;;;;5.28;69.55;97098.28;4925654;28;20521;-52
2022/02/19 10:26:12;;;;;;;2.50;1.60;;;;;;;5.28;69.63;97108.00;4946027;28;20206;-55
2022/02/19 10:28:40;;;;;;;2.43;1.63;;;;;;;5.33;70.01;97108.38;4947083;28;20206;-52
2022/02/19 10:31:15;;;;;;;2.87;1.80;;;;;;;5.62;70.52;97104.63;4949250;28;20236;-52
2022/02/19 10:33:44;;;;;;;7.60;2.20;;;;;;;5.47;70.33;97112.25;4949658;28;20393;-52
2022/02/19 10:36:19;;;;;;;2.63;1.33;;;;;;;5.42;75.16;97099.56;4965876;28;20229;-48
2022/02/19 10:38:54;;;;;;;4.23;1.80;;;;;;;5.66;72.79;97103.34;4912832;28;23057;-52
2022/02/19 10:41:33;;;;;;;2.70;1.30;;;;;;;5.78;78.14;97114.44;4954518;28;20205;-53
2022/02/19 10:44:20;;;;;;;5.10;2.10;;;;;;;5.64;71.59;97107.94;4950345;28;21166;-54
2022/02/19 10:46:49;;;;;;;5.70;2.03;;;;;;;5.82;70.02;97112.28;4946629;28;20217;-55
2022/02/19 10:49:17;;;;;;;1.77;1.20;;;;;;;6.04;72.73;97103.91;4950287;28;20225;-52
2022/02/19 10:51:47;;;;;;;5.43;2.60;;;;;;;6.22;70.43;97103.81;4961325;28;20297;-52
2022/02/19 10:54:21;;;;;;;1.83;1.33;;;;;;;6.43;68.85;97107.03;4928444;28;20324;-52
2022/02/19 10:56:50;;;;;;;2.07;1.53;;;;;;;6.31;69.36;97119.63;4950208;28;20212;-51
2022/02/19 10:59:25;;;;;;;5.30;1.63;;;;;;;6.15;63.12;97115.97;4962884;28;20899;-56
2022/02/19 11:01:53;;;;;;;2.47;1.57;;;;;;;6.07;63.60;97110.66;4947311;28;21076;-56
2022/02/19 11:04:23;;;;;;;2.83;2.17;;;;;;;6.10;66.44;97133.19;4966247;28;20284;-52
2022/02/19 11:06:53;;;;;;;7.30;1.33;;;;;;;5.87;60.36;97117.91;4947580;28;20301;-50
2022/02/19 11:09:22;;;;;;;2.07;1.40;;;;;;;5.82;66.89;97118.38;4965382;28;20202;-52
2022/02/19 11:11:50;;;;;;;4.73;1.90;;;;;;;5.94;71.77;97121.59;4902234;28;20217;-52
2022/02/19 11:14:18;;;;;;;2.57;1.40;;;;;;;6.05;69.73;97134.50;4961946;28;20346;-54
2022/02/19 11:16:47;;;;;;;2.37;1.43;;;;;;;6.29;60.69;97116.34;4926105;28;20214;-55
2022/02/19 11:19:15;;;;;;;5.50;1.93;;;;;;;6.15;59.52;97126.50;4941750;28;20225;-53
2022/02/19 11:21:44;;;;;;;2.63;1.40;;;;;;;6.08;65.52;97131.53;4923930;28;20237;-54
2022/02/19 11:24:16;;;;;;;1.80;0.93;;;;;;;6.07;61.93;97126.47;4956168;28;20227;-51
2022/02/19 11:26:46;;;;;;;2.27;1.77;;;;;;;6.30;58.71;97121.47;4908970;28;20217;-48
2022/02/19 11:29:17;;;;;;;3.37;1.00;;;;;;;6.34;57.77;97132.47;4957072;28;20304;-50
2022/02/19 11:31:46;;;;;;;1.50;1.30;;;;;;;6.08;57.22;97136.81;4947195;28;20293;-56
2022/02/19 11:34:19;;;;;;;1.60;1.30;;;;;;;5.96;59.62;97140.66;4960993;28;20226;-52
2022/02/19 11:36:47;;;;;;;1.93;1.67;;;;;;;5.88;56.85;97130.91;4948069;28;20210;-53
2022/02/19 11:39:16;;;;;;;1.17;1.13;;;;;;;5.90;56.68;97131.56;4961217;28;20250;-52
2022/02/19 11:41:46;;;;;;;1.57;1.40;;;;;;;5.99;58.59;97142.97;4883620;28;23781;-52
2022/02/19 11:44:27;;;;;;;3.13;1.60;;;;;;;6.14;54.15;97126.63;4962506;28;20715;-52
2022/02/19 11:46:57;;;;;;;3.07;1.50;;;;;;;6.12;54.03;97123.34;4950206;28;20213;-53
2022/02/19 11:49:27;;;;;;;3.30;1.17;;;;;;;6.20;55.44;97121.56;4965200;28;20202;-52
2022/02/19 11:52:13;;;;;;;3.37;1.30;;;;;;;6.62;56.65;97125.16;4949131;28;20631;-52
2022/02/19 11:55:30;;;;;;;3.60;1.40;;;;;;;6.53;53.60;97125.31;4954156;28;20203;-54